createdAt,value
2022-08-08T00:01:12.934Z,88.90
2022-08-08T00:03:49.831Z,89.00
2022-08-08T00:06:34.785Z,89.00
2022-08-08T00:09:07.632Z,89.20
2022-08-08T00:11:46.668Z,89.20
2022-08-08T00:14:56.894Z,89.40
2022-08-08T00:18:02.777Z,89.50
2022-08-08T00:20:37.467Z,89.70
2022-08-08T00:23:10.997Z,90.00
2022-08-08T00:25:46.451Z,90.30
2022-08-08T00:28:35.530Z,90.00
2022-08-08T00:32:29.107Z,90.10
2022-08-08T00:34:32.004Z,90.30
2022-08-08T00:37:16.579Z,90.40
2022-08-08T00:41:07.384Z,90.40
2022-08-08T00:43:56.061Z,90.50
2022-08-08T00:47:19.452Z,90.50
2022-08-08T00:50:35.753Z,90.50
2022-08-08T00:53:20.312Z,90.50
2022-08-08T00:56:16.534Z,90.70
2022-08-08T00:59:13.450Z,90.80
2022-08-08T01:03:16.110Z,90.90
2022-08-08T01:05:29.146Z,90.80
2022-08-08T01:08:52.284Z,90.90
2022-08-08T01:12:05.039Z,90.80
2022-08-08T01:15:07.530Z,90.90
2022-08-08T01:18:25.008Z,90.90
2022-08-08T01:22:09.847Z,90.90
2022-08-08T01:25:00.138Z,91.00
2022-08-08T01:28:00.209Z,91.00
2022-08-08T01:30:58.280Z,91.10
2022-08-08T01:34:01.110Z,91.20
2022-08-08T01:37:21.885Z,91.30
2022-08-08T01:40:22.933Z,91.30
2022-08-08T01:42:59.949Z,91.40
2022-08-08T01:45:54.554Z,91.40
2022-08-08T01:48:39.795Z,91.80
2022-08-08T01:52:43.514Z,91.60
2022-08-08T01:55:45.242Z,91.70
2022-08-08T01:57:33.849Z,91.90
2022-08-08T02:00:23.686Z,92.00
2022-08-08T02:03:55.702Z,92.10
2022-08-08T02:06:31.592Z,92.00
2022-08-08T02:09:17.788Z,92.10
2022-08-08T02:11:59.029Z,92.20
2022-08-08T02:14:49.877Z,92.20
2022-08-08T02:17:36.780Z,92.20
2022-08-08T02:21:01.510Z,92.30
2022-08-08T02:23:16.463Z,92.30
2022-08-08T02:26:00.365Z,92.30
2022-08-08T02:28:48.511Z,92.20
2022-08-08T02:31:59.624Z,92.20
2022-08-08T02:35:07.951Z,92.20
2022-08-08T02:37:52.966Z,92.30
2022-08-08T02:40:39.165Z,92.40
2022-08-08T02:44:37.409Z,92.40
2022-08-08T02:46:38.231Z,92.40
2022-08-08T02:49:47.812Z,92.40
2022-08-08T02:52:52.156Z,92.40
2022-08-08T02:55:59.772Z,92.40
2022-08-08T02:59:26.118Z,92.40
2022-08-08T03:02:50.109Z,92.40
2022-08-08T03:05:45.230Z,92.60
2022-08-08T03:08:51.705Z,92.70
2022-08-08T03:12:06.017Z,92.70
2022-08-08T03:15:58.343Z,92.70
2022-08-08T03:18:04.877Z,92.80
2022-08-08T03:20:47.000Z,92.80
2022-08-08T03:23:20.743Z,92.80
2022-08-08T03:25:50.954Z,92.80
2022-08-08T03:28:22.775Z,92.80
2022-08-08T03:31:07.796Z,92.80
2022-08-08T03:33:56.085Z,92.80
2022-08-08T03:36:31.202Z,92.90
2022-08-08T03:39:15.018Z,92.90
2022-08-08T03:42:27.057Z,93.00
2022-08-08T03:44:37.461Z,93.10
2022-08-08T03:47:13.903Z,93.10
2022-08-08T03:50:01.172Z,93.20
2022-08-08T03:52:33.699Z,93.30
2022-08-08T03:55:55.318Z,93.40
2022-08-08T03:58:30.602Z,93.30
2022-08-08T04:01:02.262Z,93.40
2022-08-08T04:03:59.273Z,93.50
2022-08-08T04:06:29.905Z,93.60
2022-08-08T04:09:10.539Z,93.60
2022-08-08T04:11:57.929Z,93.60
2022-08-08T04:14:34.820Z,93.60
2022-08-08T04:17:15.580Z,93.60
2022-08-08T04:19:53.230Z,93.60
2022-08-08T04:22:24.029Z,93.60
2022-08-08T04:24:52.649Z,93.60
2022-08-08T04:28:02.862Z,93.60
2022-08-08T04:30:18.181Z,93.70
2022-08-08T04:32:50.189Z,93.70
2022-08-08T04:35:22.595Z,93.80
2022-08-08T04:37:52.013Z,94.20
2022-08-08T04:40:23.845Z,93.90
2022-08-08T04:42:57.281Z,94.00
2022-08-08T04:45:26.216Z,94.00
2022-08-08T04:47:54.580Z,94.00
2022-08-08T04:50:23.875Z,93.90
2022-08-08T04:52:58.571Z,94.00
2022-08-08T04:55:47.886Z,94.00
2022-08-08T04:58:18.959Z,94.00
2022-08-08T05:00:48.229Z,94.00
2022-08-08T05:03:19.038Z,94.10
2022-08-08T05:06:13.187Z,94.20
2022-08-08T05:08:42.445Z,94.30
2022-08-08T05:11:18.717Z,94.40
2022-08-08T05:13:57.640Z,94.40
2022-08-08T05:16:52.889Z,94.60
2022-08-08T05:20:11.162Z,94.70
2022-08-08T05:22:08.266Z,94.70
2022-08-08T05:24:37.180Z,94.80
2022-08-08T05:27:06.363Z,94.80
2022-08-08T05:29:36.957Z,94.80
2022-08-08T05:32:07.707Z,94.80
2022-08-08T05:34:38.337Z,94.80
2022-08-08T05:37:15.844Z,94.80
2022-08-08T05:39:51.219Z,94.90
2022-08-08T05:42:25.940Z,94.90
2022-08-08T05:45:00.400Z,95.00
2022-08-08T05:47:41.728Z,95.10
2022-08-08T05:50:19.277Z,95.10
2022-08-08T05:52:48.653Z,95.20
2022-08-08T05:55:16.791Z,95.20
2022-08-08T05:58:06.227Z,95.30
2022-08-08T06:00:39.106Z,95.40
2022-08-08T06:03:23.685Z,95.50
2022-08-08T06:05:58.946Z,95.60
2022-08-08T06:08:34.702Z,95.60
2022-08-08T06:11:05.035Z,95.70
2022-08-08T06:13:36.094Z,95.70
2022-08-08T06:16:18.997Z,95.70
2022-08-08T06:18:50.284Z,95.80
2022-08-08T06:21:32.671Z,95.80
2022-08-08T06:24:13.998Z,95.80
2022-08-08T06:26:58.403Z,95.70
2022-08-08T06:29:56.511Z,95.70
2022-08-08T06:32:31.136Z,95.60
2022-08-08T06:36:00.637Z,95.60
2022-08-08T06:37:56.064Z,95.60
2022-08-08T06:40:27.285Z,95.60
2022-08-08T06:42:57.190Z,95.60
2022-08-08T06:45:25.687Z,95.60
2022-08-08T06:48:00.735Z,95.50
2022-08-08T06:50:33.321Z,95.50
2022-08-08T06:53:14.152Z,95.40
2022-08-08T06:56:02.676Z,95.40
2022-08-08T06:58:33.313Z,95.30
2022-08-08T07:02:11.690Z,95.30
2022-08-08T07:04:40.139Z,95.10
2022-08-08T07:06:47.798Z,95.00
2022-08-08T07:09:21.266Z,94.80
2022-08-08T07:11:52.062Z,94.50
2022-08-08T07:14:28.402Z,94.20
2022-08-08T07:17:09.543Z,94.30
2022-08-08T07:19:52.854Z,93.90
2022-08-08T07:22:37.066Z,93.60
2022-08-08T07:25:06.916Z,93.40
2022-08-08T07:28:00.493Z,93.20
2022-08-08T07:30:26.883Z,93.10
2022-08-08T07:32:59.562Z,92.90
2022-08-08T07:35:35.442Z,92.80
2022-08-08T07:38:18.319Z,92.50
2022-08-08T07:40:50.569Z,92.30
2022-08-08T07:43:35.135Z,92.10
2022-08-08T07:46:23.226Z,92.00
2022-08-08T07:48:52.447Z,92.00
2022-08-08T07:51:24.355Z,92.00
2022-08-08T07:54:26.643Z,92.00
2022-08-08T07:57:04.436Z,91.70
2022-08-08T07:59:45.170Z,91.60
2022-08-08T08:02:34.718Z,91.40
2022-08-08T08:05:14.953Z,91.30
2022-08-08T08:07:53.298Z,91.30
2022-08-08T08:10:30.652Z,91.20
2022-08-08T08:13:25.575Z,91.00
2022-08-08T08:16:11.418Z,90.90
2022-08-08T08:18:55.649Z,90.90
2022-08-08T08:21:44.181Z,90.80
2022-08-08T08:24:15.479Z,90.60
2022-08-08T08:26:52.573Z,90.50
2022-08-08T08:29:23.034Z,90.40
2022-08-08T08:31:54.125Z,90.00
2022-08-08T08:34:32.504Z,89.60
2022-08-08T08:37:03.291Z,89.50
2022-08-08T08:40:00.569Z,89.70
2022-08-08T08:42:29.285Z,89.50
2022-08-08T08:45:10.162Z,88.40
2022-08-08T08:47:53.306Z,87.90
2022-08-08T08:50:33.029Z,87.30
2022-08-08T08:53:27.374Z,87.00
2022-08-08T08:56:02.110Z,86.60
2022-08-08T08:58:33.384Z,86.40
2022-08-08T09:01:08.457Z,85.80
2022-08-08T09:03:46.694Z,85.30
2022-08-08T09:06:28.278Z,85.00
2022-08-08T09:09:05.382Z,84.40
2022-08-08T09:11:47.383Z,83.80
2022-08-08T09:14:27.013Z,83.00
2022-08-08T09:16:55.570Z,82.00
2022-08-08T09:21:56.668Z,82.00
2022-08-08T09:22:26.139Z,81.50
2022-08-08T09:24:58.433Z,80.30
2022-08-08T09:27:56.141Z,79.70
2022-08-08T09:30:20.038Z,78.90
2022-08-08T09:33:54.911Z,78.30
2022-08-08T09:35:49.347Z,78.00
2022-08-08T09:38:32.759Z,77.60
2022-08-08T09:41:07.166Z,78.20
2022-08-08T09:44:06.406Z,77.00
2022-08-08T09:46:45.167Z,76.20
2022-08-08T09:49:42.613Z,75.80
2022-08-08T09:52:56.206Z,75.50
2022-08-08T09:55:08.974Z,75.50
2022-08-08T09:57:46.225Z,74.90
2022-08-08T10:00:53.386Z,74.50
2022-08-08T10:03:19.916Z,74.20
2022-08-08T10:05:49.701Z,74.40
2022-08-08T10:08:17.859Z,74.60
2022-08-08T10:10:51.310Z,73.20
2022-08-08T10:13:25.888Z,72.80
2022-08-08T10:16:03.777Z,72.50
2022-08-08T10:18:33.469Z,72.50
2022-08-08T10:21:08.318Z,72.50
2022-08-08T10:23:57.764Z,72.80
2022-08-08T10:26:58.849Z,72.70
2022-08-08T10:29:24.852Z,72.20
2022-08-08T10:32:15.952Z,70.70
2022-08-08T10:34:58.527Z,70.50
2022-08-08T10:37:30.118Z,70.70
2022-08-08T10:39:59.898Z,70.10
2022-08-08T10:42:37.390Z,69.70
2022-08-08T10:45:08.019Z,69.00
2022-08-08T10:47:43.814Z,68.20
2022-08-08T10:50:16.707Z,67.90
2022-08-08T10:52:45.662Z,67.60
2022-08-08T10:55:39.322Z,67.20
2022-08-08T10:58:05.693Z,67.00
2022-08-08T11:00:39.187Z,68.00
2022-08-08T11:03:19.129Z,68.40
2022-08-08T11:06:12.503Z,68.90
2022-08-08T11:08:50.094Z,68.80
2022-08-08T11:11:32.016Z,68.00
2022-08-08T11:14:16.076Z,67.90
2022-08-08T11:16:46.457Z,68.40
2022-08-08T11:19:18.048Z,68.80
2022-08-08T11:21:54.026Z,68.80
2022-08-08T11:24:28.911Z,67.40
2022-08-08T11:27:10.362Z,66.80
2022-08-08T11:29:58.290Z,66.00
2022-08-08T11:32:39.903Z,65.20
2022-08-08T11:35:27.786Z,64.50
2022-08-08T11:38:36.202Z,64.50
2022-08-08T11:40:52.517Z,65.70
2022-08-08T11:43:23.721Z,65.90
2022-08-08T11:46:09.640Z,66.40
2022-08-08T11:48:47.189Z,66.80
2022-08-08T11:51:37.881Z,66.80
2022-08-08T11:54:26.702Z,66.70
2022-08-08T11:56:57.860Z,67.10
2022-08-08T12:00:01.346Z,66.10
2022-08-08T12:02:32.682Z,65.00
2022-08-08T12:05:02.970Z,65.00
2022-08-08T12:07:34.528Z,64.20
2022-08-08T12:10:12.113Z,64.00
2022-08-08T12:12:45.926Z,63.90
2022-08-08T12:15:27.813Z,64.10
2022-08-08T12:17:56.181Z,63.00
2022-08-08T12:20:25.496Z,62.80
2022-08-08T12:22:57.048Z,62.30
2022-08-08T12:25:30.916Z,62.60
2022-08-08T12:28:14.361Z,63.10
2022-08-08T12:30:47.731Z,63.20
2022-08-08T12:33:20.837Z,63.80
2022-08-08T12:35:52.241Z,62.80
2022-08-08T12:38:31.429Z,62.10
2022-08-08T12:41:10.511Z,61.80
2022-08-08T12:44:00.149Z,62.10
2022-08-08T12:46:29.348Z,62.40
2022-08-08T12:49:25.112Z,62.80
2022-08-08T12:51:58.757Z,62.90
2022-08-08T12:54:35.687Z,63.00
2022-08-08T12:57:14.991Z,62.90
2022-08-08T13:00:04.399Z,62.10
2022-08-08T13:02:37.858Z,61.00
2022-08-08T13:05:26.707Z,60.00
2022-08-08T13:08:16.931Z,60.10
2022-08-08T13:10:56.218Z,59.70
2022-08-08T13:13:34.686Z,59.20
2022-08-08T13:16:18.790Z,59.30
2022-08-08T13:18:55.807Z,59.10
2022-08-08T13:21:48.827Z,58.90
2022-08-08T13:24:23.643Z,58.60
2022-08-08T13:27:11.974Z,58.40
2022-08-08T13:29:50.678Z,57.70
2022-08-08T13:32:23.624Z,57.30
2022-08-08T13:34:54.192Z,56.80
2022-08-08T13:37:28.185Z,56.60
2022-08-08T13:40:12.443Z,56.20
2022-08-08T13:42:47.879Z,56.40
2022-08-08T13:45:24.055Z,56.00
2022-08-08T13:47:58.185Z,56.00
2022-08-08T13:50:34.685Z,56.00
2022-08-08T13:53:24.394Z,56.40
2022-08-08T13:55:59.127Z,56.70
2022-08-08T13:58:30.306Z,56.80
2022-08-08T14:00:58.572Z,56.00
2022-08-08T14:03:52.734Z,55.70
2022-08-08T14:06:33.144Z,55.80
2022-08-08T14:09:24.358Z,56.30
2022-08-08T14:11:51.285Z,56.00
2022-08-08T14:14:26.179Z,56.30
2022-08-08T14:16:57.363Z,56.00
2022-08-08T14:19:58.268Z,55.70
2022-08-08T14:22:28.725Z,56.20
2022-08-08T14:25:00.070Z,57.00
2022-08-08T14:27:33.388Z,57.80
2022-08-08T14:30:18.095Z,58.70
2022-08-08T14:32:52.914Z,59.50
2022-08-08T14:35:23.291Z,60.90
2022-08-08T14:37:59.973Z,60.70
2022-08-08T14:40:31.951Z,60.60
2022-08-08T14:43:01.510Z,61.60
2022-08-08T14:45:47.067Z,61.90
2022-08-08T14:48:34.338Z,61.20
2022-08-08T14:51:06.862Z,61.30
2022-08-08T14:53:55.845Z,61.60
2022-08-08T14:56:25.745Z,61.70
2022-08-08T14:58:54.661Z,61.50
2022-08-08T15:01:37.502Z,61.50
2022-08-08T15:04:10.365Z,61.40
2022-08-08T15:06:38.916Z,61.80
2022-08-08T15:09:07.819Z,61.60
2022-08-08T15:11:43.353Z,61.60
2022-08-08T15:14:15.089Z,61.90
2022-08-08T15:16:44.882Z,61.60
2022-08-08T15:19:15.535Z,61.60
2022-08-08T15:21:44.750Z,61.70
2022-08-08T15:24:15.951Z,61.30
2022-08-08T15:26:52.925Z,61.10
2022-08-08T15:29:22.366Z,61.00
2022-08-08T15:32:03.818Z,61.00
2022-08-08T15:34:42.297Z,60.90
2022-08-08T15:37:10.418Z,60.60
2022-08-08T15:39:41.422Z,60.70
2022-08-08T15:42:17.986Z,60.10
2022-08-08T15:44:58.282Z,59.80
2022-08-08T15:47:27.809Z,59.50
2022-08-08T15:49:55.849Z,59.30
2022-08-08T15:52:25.764Z,58.30
2022-08-08T15:54:54.384Z,57.80
2022-08-08T15:57:23.750Z,57.40
2022-08-08T16:00:05.284Z,57.30
2022-08-08T16:02:44.010Z,57.60
2022-08-08T16:05:19.304Z,57.40
2022-08-08T16:07:52.368Z,57.20
2022-08-08T16:13:04.465Z,57.00
2022-08-08T16:13:34.932Z,56.80
2022-08-08T16:16:09.266Z,56.80
2022-08-08T16:18:43.208Z,56.90
2022-08-08T16:21:26.023Z,56.70
2022-08-08T16:23:55.702Z,56.40
2022-08-08T16:26:34.408Z,56.30
2022-08-08T16:29:07.873Z,56.20
2022-08-08T16:31:37.718Z,56.00
2022-08-08T16:34:07.541Z,55.30
2022-08-08T16:36:37.398Z,55.30
2022-08-08T16:39:09.589Z,56.00
2022-08-08T16:41:51.072Z,55.80
2022-08-08T16:44:27.640Z,56.20
2022-08-08T16:47:17.801Z,56.50
2022-08-08T16:49:51.217Z,56.50
2022-08-08T16:55:22.539Z,56.80
2022-08-08T16:55:24.972Z,57.10
2022-08-08T16:58:13.746Z,57.30
2022-08-08T17:00:48.684Z,57.50
2022-08-08T17:03:24.332Z,57.70
2022-08-08T17:05:56.483Z,57.90
2022-08-08T17:08:24.817Z,58.10
2022-08-08T17:10:58.757Z,58.30
2022-08-08T17:13:41.367Z,58.00
2022-08-08T17:16:22.345Z,57.20
2022-08-08T17:18:52.558Z,57.50
2022-08-08T17:21:22.034Z,58.20
2022-08-08T17:24:00.129Z,58.90
2022-08-08T17:26:31.337Z,59.40
2022-08-08T17:29:03.899Z,59.70
2022-08-08T17:31:45.848Z,60.50
2022-08-08T17:34:52.943Z,61.20
2022-08-08T17:37:06.779Z,61.40
2022-08-08T17:40:03.533Z,61.70
2022-08-08T17:42:27.370Z,61.90
2022-08-08T17:44:55.493Z,62.00
2022-08-08T17:47:27.735Z,61.90
2022-08-08T17:50:01.074Z,62.10
2022-08-08T17:52:34.405Z,62.20
2022-08-08T17:55:05.326Z,63.00
2022-08-08T17:57:37.719Z,63.50
2022-08-08T18:00:19.149Z,63.80
2022-08-08T18:02:58.137Z,63.90
2022-08-08T18:05:49.547Z,64.70
2022-08-08T18:08:37.972Z,65.20
2022-08-08T18:11:15.243Z,65.20
2022-08-08T18:13:46.147Z,65.30
2022-08-08T18:16:17.155Z,65.60
2022-08-08T18:18:53.740Z,66.00
2022-08-08T18:21:34.926Z,66.40
2022-08-08T18:24:19.463Z,67.10
2022-08-08T18:26:54.307Z,66.60
2022-08-08T18:29:27.442Z,66.90
2022-08-08T18:31:59.271Z,67.30
2022-08-08T18:34:28.058Z,67.70
2022-08-08T18:36:56.683Z,68.50
2022-08-08T18:39:28.651Z,69.20
2022-08-08T18:42:03.008Z,69.70
2022-08-08T18:44:32.769Z,70.00
2022-08-08T18:47:02.780Z,70.30
2022-08-08T18:49:32.517Z,70.60
2022-08-08T18:52:22.407Z,71.10
2022-08-08T18:54:59.218Z,71.70
2022-08-08T18:57:31.968Z,71.90
2022-08-08T19:00:10.673Z,72.40
2022-08-08T19:02:48.401Z,72.70
2022-08-08T19:05:30.146Z,72.80
2022-08-08T19:08:00.414Z,73.00
2022-08-08T19:10:31.754Z,73.40
2022-08-08T19:13:00.141Z,73.60
2022-08-08T19:15:34.368Z,73.80
2022-08-08T19:18:31.174Z,74.00
2022-08-08T19:20:50.737Z,74.10
2022-08-08T19:23:21.626Z,74.80
2022-08-08T19:26:20.193Z,74.90
2022-08-08T19:28:41.802Z,75.00
2022-08-08T19:31:16.968Z,75.40
2022-08-08T19:34:04.572Z,75.60
2022-08-08T19:36:34.945Z,75.80
2022-08-08T19:39:03.064Z,76.10
2022-08-08T19:41:34.045Z,76.50
2022-08-08T19:44:12.683Z,76.90
2022-08-08T19:46:50.400Z,77.20
2022-08-08T19:49:19.393Z,77.40
2022-08-08T19:51:49.048Z,77.60
2022-08-08T19:54:17.269Z,77.70
2022-08-08T19:56:49.023Z,77.90
2022-08-08T19:59:18.866Z,78.10
2022-08-08T20:02:03.274Z,78.40
2022-08-08T20:04:33.088Z,78.70
2022-08-08T20:07:05.118Z,79.00
2022-08-08T20:09:56.267Z,79.20
2022-08-08T20:12:31.998Z,79.40
2022-08-08T20:15:14.561Z,79.70
2022-08-08T20:17:47.385Z,80.00
2022-08-08T20:20:19.035Z,80.30
2022-08-08T20:22:52.464Z,80.60
2022-08-08T20:25:22.694Z,80.70
2022-08-08T20:27:54.708Z,81.00
2022-08-08T20:30:53.931Z,81.20
2022-08-08T20:35:56.943Z,81.90
2022-08-08T20:38:32.974Z,82.10
2022-08-08T20:41:05.713Z,82.50
2022-08-08T20:43:49.647Z,82.70
2022-08-08T20:46:20.301Z,82.90
2022-08-08T20:48:51.141Z,83.10
2022-08-08T20:51:20.602Z,83.20
2022-08-08T20:54:00.139Z,83.40
2022-08-08T20:56:36.077Z,83.70
2022-08-08T20:59:09.004Z,83.90
2022-08-08T21:02:06.670Z,84.20
2022-08-08T21:04:27.325Z,84.40
2022-08-08T21:06:56.702Z,84.80
2022-08-08T21:09:31.713Z,85.10
2022-08-08T21:12:13.476Z,85.30
2022-08-08T21:14:42.963Z,85.50
2022-08-08T21:17:17.663Z,85.60
2022-08-08T21:19:47.711Z,85.90
2022-08-08T21:22:16.447Z,86.10
2022-08-08T21:24:52.925Z,86.30
2022-08-08T21:28:06.028Z,86.40
2022-08-08T21:30:18.701Z,86.90
2022-08-08T21:32:52.324Z,87.20
2022-08-08T21:36:18.481Z,87.50
2022-08-08T21:38:12.026Z,87.70
2022-08-08T21:40:54.640Z,87.90
2022-08-08T21:43:24.889Z,88.20
2022-08-08T21:48:07.324Z,88.80
2022-08-08T21:48:49.158Z,88.90
2022-08-08T21:52:09.759Z,89.10
2022-08-08T21:54:32.788Z,89.30
2022-08-08T21:56:59.383Z,89.50
2022-08-08T21:59:44.193Z,89.70
2022-08-08T22:02:22.865Z,90.30
2022-08-08T22:04:53.129Z,90.10
2022-08-08T22:07:26.075Z,90.10
2022-08-08T22:10:03.194Z,90.10
2022-08-08T22:12:38.830Z,90.10
2022-08-08T22:15:08.480Z,90.20
2022-08-08T22:17:45.329Z,90.30
2022-08-08T22:20:23.699Z,90.30
2022-08-08T22:22:56.319Z,90.40
2022-08-08T22:25:25.125Z,90.40
2022-08-08T22:28:02.610Z,90.40
2022-08-08T22:30:42.622Z,90.50
2022-08-08T22:34:11.056Z,90.60
2022-08-08T22:36:04.249Z,90.60
2022-08-08T22:38:48.595Z,90.70
2022-08-08T22:41:21.570Z,90.80
2022-08-08T22:44:02.592Z,90.80
2022-08-08T22:46:32.979Z,90.90
2022-08-08T22:49:03.134Z,90.90
2022-08-08T22:51:34.676Z,90.90
2022-08-08T22:54:32.497Z,91.40
2022-08-08T22:56:51.046Z,91.00
2022-08-08T22:59:19.101Z,91.10
2022-08-08T23:02:02.196Z,91.20
2022-08-08T23:04:34.635Z,91.20
2022-08-08T23:07:03.524Z,91.20
2022-08-08T23:09:39.324Z,91.30
2022-08-08T23:12:39.623Z,91.20
2022-08-08T23:15:11.189Z,91.20
2022-08-08T23:17:58.394Z,91.10
2022-08-08T23:20:28.049Z,91.10
2022-08-08T23:22:56.794Z,91.10
2022-08-08T23:25:25.226Z,91.20
2022-08-08T23:27:54.462Z,91.20
2022-08-08T23:30:23.706Z,91.20
2022-08-08T23:32:52.290Z,91.20
2022-08-08T23:35:20.399Z,91.20
2022-08-08T23:38:01.232Z,91.20
2022-08-08T23:40:31.674Z,91.20
2022-08-08T23:43:02.677Z,91.40
2022-08-08T23:49:01.116Z,91.30
2022-08-08T23:49:05.623Z,91.30
2022-08-08T23:51:12.784Z,91.30
2022-08-08T23:54:05.027Z,91.30
2022-08-08T23:56:34.897Z,91.30
2022-08-08T23:59:16.859Z,91.30
